Hancock, New Hampshire
Current Conditions -  °F | °C
As of 3:52 AM on Friday 31 Oct 2014 (Local Time) from KAFN Reporting Station
Few Clouds Few Clouds  
Wind Chill: 33°   Ceiling: Unl
Heat Index: 33°   Visibility: 10mi
Dew Point: 31°   Wind: 0mph
Humidity: 92%   Direction: NA
Pressure: 30"   Gusts: NA
Location:  42.97°N, 71.98°W
Report Text: KAFN 310752Z AUTO 00000KT 10SM FEW001 01/M01 A3000 RMK AO2 SLP170 T00061006
Loading
Personal Weather Stations






























Interactive Weather Map
Tropical Storm Tracking
New forecast layout! Learn more

10-Day Weather Forecast

Advertisements
Track Severe Weather on mobile